Time;durP1;ratioP1;P1;durP2;ratioP2;P2;SDS_P1;SDS_P2;PMS_P1;PMS_P2;Temp;Humidity;BMP_temperature;BMP_pressure;BME280_temperature;BME280_humidity;BME280_pressure;Samples;Min_cycle;Max_cycle;Signal;HPM_P1;HPM_P2
2021/09/29 00:00:06;;;;;;;9.68;8.77;;;14.80;99.90;;;;;;4982736;28;20438;-80
2021/09/29 00:02:31;;;;;;;10.10;9.02;;;14.80;99.90;;;;;;4998889;28;20030;-81
2021/09/29 00:04:57;;;;;;;11.00;9.88;;;14.70;99.90;;;;;;4996606;28;20049;-81
2021/09/29 00:07:23;;;;;;;10.85;9.73;;;14.70;99.90;;;;;;5000253;28;20046;-81
2021/09/29 00:09:48;;;;;;;10.93;9.30;;;14.70;99.90;;;;;;5012720;28;20026;-80
2021/09/29 00:12:23;;;;;;;8.05;7.28;;;14.70;99.90;;;;;;5013447;28;20026;-82
2021/09/29 00:14:49;;;;;;;7.18;6.47;;;14.70;99.90;;;;;;5014383;28;20133;-80
2021/09/29 00:17:15;;;;;;;7.05;6.38;;;14.80;99.90;;;;;;5013905;28;20022;-82
2021/09/29 00:19:40;;;;;;;7.38;6.68;;;14.80;99.90;;;;;;4996019;28;20366;-82
2021/09/29 00:22:06;;;;;;;7.20;6.50;;;14.80;99.90;;;;;;5002668;28;20082;-82
2021/09/29 00:24:32;;;;;;;6.47;5.88;;;14.80;99.90;;;;;;5002930;28;20029;-82
2021/09/29 00:26:58;;;;;;;5.88;5.30;;;14.80;99.90;;;;;;5005184;28;20082;-82
2021/09/29 00:29:24;;;;;;;6.30;5.80;;;14.90;99.90;;;;;;5004813;28;20030;-81
2021/09/29 00:31:49;;;;;;;6.13;5.53;;;15.00;99.90;;;;;;5002690;28;20387;-82
2021/09/29 00:34:29;;;;;;;7.63;6.38;;;15.00;99.90;;;;;;5002406;28;20033;-82
2021/09/29 00:36:54;;;;;;;8.90;8.10;;;15.00;99.90;;;;;;4989292;28;20026;-82
2021/09/29 00:39:23;;;;;;;7.40;6.68;;;14.90;99.90;;;;;;5001472;28;20057;-82
2021/09/29 00:41:49;;;;;;;9.63;7.82;;;14.90;99.90;;;;;;5003990;28;20026;-81
2021/09/29 00:44:15;;;;;;;10.48;8.55;;;14.80;99.90;;;;;;5004760;28;20041;-82
2021/09/29 00:46:40;;;;;;;9.00;8.10;;;14.80;99.90;;;;;;5003813;28;20040;-82
2021/09/29 00:49:06;;;;;;;8.57;7.78;;;14.80;99.90;;;;;;5002653;28;20034;-81
2021/09/29 00:51:33;;;;;;;8.70;7.78;;;14.80;99.90;;;;;;5003822;28;20105;-81
2021/09/29 00:54:01;;;;;;;7.93;7.20;;;14.70;99.90;;;;;;5005034;28;20025;-82
2021/09/29 00:56:27;;;;;;;9.57;8.68;;;14.80;99.90;;;;;;4986162;28;20054;-81
2021/09/29 00:58:52;;;;;;;9.02;8.23;;;14.80;99.90;;;;;;5003096;28;20022;-81
2021/09/29 01:01:18;;;;;;;12.23;10.95;;;14.80;99.90;;;;;;5003459;28;20023;-81
2021/09/29 01:03:46;;;;;;;16.17;10.77;;;14.70;99.90;;;;;;5004781;28;20100;-81
2021/09/29 01:06:41;;;;;;;11.98;10.25;;;14.70;99.90;;;;;;4999407;28;20046;-82
2021/09/29 01:09:15;;;;;;;8.95;8.15;;;14.70;99.90;;;;;;4985159;28;20054;-81
2021/09/29 01:12:02;;;;;;;8.95;8.05;;;14.70;99.90;;;;;;4983365;28;20023;-81
2021/09/29 01:14:51;;;;;;;8.10;7.05;;;14.80;99.90;;;;;;4998150;28;20377;-81
2021/09/29 01:17:19;;;;;;;13.45;12.05;;;14.80;99.90;;;;;;5003508;28;20025;-82
2021/09/29 01:19:52;;;;;;;13.73;10.18;;;14.90;99.90;;;;;;5004446;28;20022;-82
2021/09/29 01:22:41;;;;;;;12.57;10.63;;;14.90;99.90;;;;;;4984124;28;20084;-82
2021/09/29 01:25:14;;;;;;;13.25;11.88;;;14.90;99.90;;;;;;5015277;28;20013;-79
2021/09/29 01:27:40;;;;;;;15.18;12.55;;;15.00;99.90;;;;;;4999340;28;20030;-80
2021/09/29 01:30:07;;;;;;;14.23;12.18;;;15.10;99.90;;;;;;4982481;28;20047;-81
2021/09/29 01:32:33;;;;;;;14.73;12.18;;;15.10;99.90;;;;;;4981991;28;20125;-79
2021/09/29 01:34:59;;;;;;;12.73;11.10;;;15.00;99.90;;;;;;4995034;28;20116;-80
2021/09/29 01:37:25;;;;;;;14.65;11.30;;;15.00;99.90;;;;;;4989450;28;20082;-80
2021/09/29 01:39:51;;;;;;;11.10;10.00;;;15.00;99.90;;;;;;4982825;28;20503;-81
2021/09/29 01:42:17;;;;;;;16.52;13.70;;;14.90;99.90;;;;;;4981325;28;20041;-82
2021/09/29 01:44:43;;;;;;;17.65;13.07;;;14.90;99.90;;;;;;4982173;28;20042;-82
2021/09/29 01:47:09;;;;;;;13.77;11.70;;;14.90;99.90;;;;;;4997851;28;20372;-82
2021/09/29 01:49:38;;;;;;;17.10;13.50;;;14.90;99.90;;;;;;4998640;28;20027;-82
2021/09/29 01:52:07;;;;;;;11.20;10.10;;;14.90;99.90;;;;;;5001053;28;20034;-82
2021/09/29 01:54:37;;;;;;;15.30;11.13;;;15.00;99.90;;;;;;4999947;28;20088;-82
2021/09/29 01:57:03;;;;;;;20.55;15.00;;;14.90;99.90;;;;;;4984202;28;20029;-82
2021/09/29 01:59:29;;;;;;;22.13;16.48;;;14.90;99.90;;;;;;5001254;28;20030;-82
2021/09/29 02:01:54;;;;;;;21.40;18.40;;;14.90;99.90;;;;;;5000968;28;20522;-82
2021/09/29 02:04:20;;;;;;;19.70;16.48;;;14.80;99.90;;;;;;5003689;28;20125;-81
2021/09/29 02:06:52;;;;;;;18.83;14.77;;;14.80;99.90;;;;;;5000859;28;20042;-81
2021/09/29 02:09:19;;;;;;;20.20;16.70;;;14.60;99.90;;;;;;4976568;28;20082;-82
2021/09/29 02:11:45;;;;;;;21.23;16.65;;;14.60;99.90;;;;;;4996026;28;20044;-82
2021/09/29 02:14:12;;;;;;;21.00;16.70;;;14.60;99.90;;;;;;5001033;28;20030;-82
2021/09/29 02:16:38;;;;;;;18.42;15.90;;;14.60;99.90;;;;;;4982728;28;20070;-82
2021/09/29 02:19:04;;;;;;;28.27;20.00;;;14.60;99.90;;;;;;5002378;28;20110;-81
2021/09/29 02:21:30;;;;;;;20.02;17.50;;;14.60;99.90;;;;;;5000310;28;20058;-82
2021/09/29 02:23:56;;;;;;;14.57;12.82;;;14.70;99.90;;;;;;4999327;28;20030;-81
2021/09/29 02:26:22;;;;;;;21.02;16.65;;;14.70;99.90;;;;;;5000649;28;20082;-82
2021/09/29 02:28:48;;;;;;;27.98;18.80;;;14.70;99.90;;;;;;5001378;28;20039;-82
2021/09/29 02:31:13;;;;;;;18.25;14.75;;;14.70;99.90;;;;;;5000158;28;20089;-81
2021/09/29 02:33:39;;;;;;;22.45;17.02;;;14.80;99.90;;;;;;5000190;28;20023;-82
2021/09/29 02:36:05;;;;;;;25.20;19.48;;;14.70;99.90;;;;;;5000623;28;20102;-82
2021/09/29 02:38:31;;;;;;;26.08;20.42;;;14.80;99.90;;;;;;4998167;28;20471;-81
2021/09/29 02:40:57;;;;;;;27.25;20.92;;;14.80;99.90;;;;;;4983406;28;20037;-82
2021/09/29 02:43:22;;;;;;;29.27;20.77;;;14.80;99.90;;;;;;5002175;28;20038;-82
2021/09/29 02:45:48;;;;;;;20.30;16.55;;;14.80;99.90;;;;;;5001061;28;20030;-82
2021/09/29 02:48:14;;;;;;;25.33;19.85;;;14.80;99.90;;;;;;5001143;28;20462;-82
2021/09/29 02:50:40;;;;;;;24.27;18.90;;;14.90;99.90;;;;;;5003667;28;20082;-81
2021/09/29 02:53:06;;;;;;;15.93;14.23;;;14.80;99.90;;;;;;5002372;28;20026;-81
2021/09/29 02:55:32;;;;;;;25.30;18.25;;;14.80;99.90;;;;;;5001740;28;20209;-81
2021/09/29 02:57:57;;;;;;;20.83;16.38;;;14.80;99.90;;;;;;4981268;28;20026;-82
2021/09/29 03:00:23;;;;;;;23.40;16.65;;;14.90;99.90;;;;;;5000810;28;20030;-81
2021/09/29 03:02:49;;;;;;;18.42;14.85;;;14.90;99.90;;;;;;4998086;28;20519;-83
2021/09/29 03:05:15;;;;;;;18.52;14.27;;;14.90;99.90;;;;;;4980730;28;20072;-82
2021/09/29 03:07:40;;;;;;;18.77;14.73;;;15.00;99.90;;;;;;4997386;28;20050;-82
2021/09/29 03:10:06;;;;;;;20.60;16.52;;;15.00;99.90;;;;;;4990051;28;20045;-82
2021/09/29 03:12:32;;;;;;;18.17;14.57;;;15.00;99.90;;;;;;4980277;28;20073;-82
2021/09/29 03:14:58;;;;;;;18.20;12.95;;;15.00;99.90;;;;;;4998940;28;20026;-81
2021/09/29 03:17:23;;;;;;;20.77;15.52;;;15.00;99.90;;;;;;4981950;28;20041;-81
2021/09/29 03:19:49;;;;;;;20.42;15.70;;;15.00;99.90;;;;;;4998650;28;20033;-82
2021/09/29 03:22:15;;;;;;;17.75;14.25;;;15.00;99.90;;;;;;4998659;28;20512;-82
2021/09/29 03:24:41;;;;;;;16.23;13.15;;;15.00;99.90;;;;;;4998696;28;20023;-82
2021/09/29 03:27:08;;;;;;;26.00;15.45;;;14.90;99.90;;;;;;4998227;28;20383;-81
2021/09/29 03:29:34;;;;;;;19.20;14.32;;;14.90;99.90;;;;;;4997609;28;20447;-81
2021/09/29 03:32:00;;;;;;;25.25;18.35;;;15.00;99.90;;;;;;4997524;28;20019;-82
2021/09/29 03:34:26;;;;;;;28.25;19.63;;;15.00;99.90;;;;;;4979998;28;20098;-82
2021/09/29 03:36:52;;;;;;;20.33;16.77;;;14.90;99.90;;;;;;4980134;28;20679;-82
2021/09/29 03:39:17;;;;;;;20.20;15.50;;;14.90;99.90;;;;;;4987639;28;20074;-82
2021/09/29 03:41:43;;;;;;;31.60;20.98;;;14.90;99.90;;;;;;4995051;28;20058;-82
2021/09/29 03:44:09;;;;;;;26.98;18.70;;;14.90;99.90;;;;;;4999772;28;20118;-82
2021/09/29 03:46:35;;;;;;;25.73;18.27;;;14.90;99.90;;;;;;5001036;28;20471;-82
2021/09/29 03:49:02;;;;;;;21.13;16.50;;;14.90;99.90;;;;;;5000347;28;20031;-82
2021/09/29 03:51:28;;;;;;;22.02;15.82;;;14.80;99.90;;;;;;5000430;28;20022;-82
2021/09/29 03:53:54;;;;;;;20.67;14.48;;;14.80;99.90;;;;;;4976956;28;20034;-82
2021/09/29 03:56:20;;;;;;;16.75;13.18;;;14.70;99.90;;;;;;4996091;28;20038;-82
2021/09/29 03:58:45;;;;;;;23.33;15.20;;;14.70;99.90;;;;;;4998915;28;20128;-82
2021/09/29 04:01:12;;;;;;;20.45;15.40;;;14.70;99.90;;;;;;4999237;28;20066;-82
2021/09/29 04:03:37;;;;;;;29.35;15.50;;;14.70;99.90;;;;;;5014294;28;20015;-82
2021/09/29 04:06:03;;;;;;;17.40;12.38;;;14.70;99.90;;;;;;5017899;23;20070;-80
2021/09/29 04:08:29;;;;;;;17.30;12.75;;;14.60;99.90;;;;;;5017981;28;20061;-80
2021/09/29 04:10:56;;;;;;;20.27;13.52;;;14.60;99.90;;;;;;5020106;28;20037;-79
2021/09/29 04:13:22;;;;;;;20.40;13.68;;;14.60;99.90;;;;;;5011485;28;20029;-80
2021/09/29 04:15:49;;;;;;;19.83;14.25;;;14.60;99.90;;;;;;5012768;28;20052;-79
2021/09/29 04:18:15;;;;;;;24.17;17.30;;;14.60;99.90;;;;;;5031743;28;20040;-79
2021/09/29 04:20:41;;;;;;;21.85;15.18;;;14.60;99.90;;;;;;5014978;28;20030;-79
2021/09/29 04:23:07;;;;;;;24.10;15.50;;;14.60;99.90;;;;;;5027850;28;20383;-80
2021/09/29 04:25:33;;;;;;;22.10;14.85;;;14.60;99.90;;;;;;5026502;28;20038;-79
2021/09/29 04:27:58;;;;;;;17.38;14.40;;;14.60;99.90;;;;;;5005703;28;20046;-79
2021/09/29 04:30:24;;;;;;;17.60;14.27;;;14.60;99.90;;;;;;5028650;28;20125;-81
2021/09/29 04:32:50;;;;;;;21.23;14.30;;;14.60;99.90;;;;;;5011077;28;20097;-79
2021/09/29 04:35:16;;;;;;;16.88;12.18;;;14.70;99.90;;;;;;5023515;28;20019;-80
2021/09/29 04:37:41;;;;;;;16.10;12.70;;;14.60;99.90;;;;;;5020095;28;20026;-80
2021/09/29 04:40:08;;;;;;;18.13;14.05;;;14.70;99.90;;;;;;5009105;28;20033;-78
2021/09/29 04:42:35;;;;;;;14.93;11.75;;;14.70;99.90;;;;;;5005513;28;20026;-79
2021/09/29 04:45:01;;;;;;;16.20;12.38;;;14.70;99.90;;;;;;5011396;28;20029;-79
2021/09/29 04:47:27;;;;;;;19.90;14.43;;;14.70;99.90;;;;;;5032206;28;20026;-79
2021/09/29 04:49:52;;;;;;;18.67;13.82;;;14.70;99.90;;;;;;5031497;28;20018;-79
2021/09/29 04:52:18;;;;;;;17.63;12.57;;;14.70;99.90;;;;;;5013994;28;20061;-79
2021/09/29 04:54:44;;;;;;;15.63;11.57;;;14.70;99.90;;;;;;5034462;28;20022;-79
2021/09/29 04:57:10;;;;;;;11.68;10.05;;;14.70;99.90;;;;;;5034797;28;20018;-78
2021/09/29 04:59:37;;;;;;;15.60;12.05;;;14.70;99.90;;;;;;5030220;28;20039;-78
2021/09/29 05:02:07;;;;;;;14.45;11.80;;;14.70;99.90;;;;;;5016523;28;20031;-82
2021/09/29 05:04:32;;;;;;;17.67;11.30;;;14.70;99.90;;;;;;5016468;28;20046;-82
2021/09/29 05:06:59;;;;;;;14.38;10.30;;;14.60;99.90;;;;;;5024107;28;20029;-82
2021/09/29 05:09:25;;;;;;;14.85;10.68;;;14.70;99.90;;;;;;5015831;28;20462;-82
2021/09/29 05:12:13;;;;;;;17.42;12.82;;;14.70;99.90;;;;;;5013583;28;20027;-82
2021/09/29 05:14:38;;;;;;;16.08;11.90;;;14.60;99.90;;;;;;5011533;28;20034;-83
2021/09/29 05:17:04;;;;;;;12.80;9.57;;;14.70;99.90;;;;;;5013180;28;20026;-83
2021/09/29 05:19:30;;;;;;;13.13;8.82;;;14.60;99.90;;;;;;5012073;28;20138;-84
2021/09/29 05:21:56;;;;;;;10.93;8.25;;;14.60;99.90;;;;;;5011440;28;20041;-84
2021/09/29 05:24:21;;;;;;;12.73;8.85;;;14.70;99.90;;;;;;5020128;28;20026;-84
2021/09/29 05:26:48;;;;;;;16.05;11.48;;;14.70;99.90;;;;;;5031832;28;20038;-83
2021/09/29 05:29:17;;;;;;;15.63;10.20;;;14.70;99.90;;;;;;5030298;28;20022;-83
2021/09/29 05:31:43;;;;;;;11.05;8.88;;;14.80;99.90;;;;;;5014240;28;20022;-83
2021/09/29 05:34:09;;;;;;;10.55;8.32;;;14.80;99.90;;;;;;5013731;28;20022;-84
2021/09/29 05:36:35;;;;;;;12.48;9.63;;;14.90;99.90;;;;;;5006467;28;20426;-83
2021/09/29 05:39:01;;;;;;;9.82;7.30;;;14.90;99.90;;;;;;5025512;28;20040;-79
2021/09/29 05:41:27;;;;;;;14.05;10.43;;;14.90;99.90;;;;;;5018591;28;20064;-81
2021/09/29 05:43:52;;;;;;;11.70;8.80;;;14.90;99.90;;;;;;5032484;28;20032;-81
2021/09/29 05:46:18;;;;;;;10.95;8.23;;;14.90;99.90;;;;;;5006993;28;20096;-80
2021/09/29 05:48:44;;;;;;;7.82;6.43;;;14.90;99.90;;;;;;5023292;28;20037;-80
2021/09/29 05:51:10;;;;;;;9.57;7.55;;;15.00;99.90;;;;;;5025362;28;20026;-79
2021/09/29 05:53:35;;;;;;;8.93;7.10;;;15.00;99.90;;;;;;5031654;28;20060;-79
2021/09/29 05:56:01;;;;;;;10.05;6.80;;;15.00;99.90;;;;;;5014182;28;20060;-79
2021/09/29 05:58:27;;;;;;;6.60;5.68;;;15.10;99.90;;;;;;5021068;28;20018;-80
2021/09/29 06:00:53;;;;;;;9.80;7.00;;;15.10;99.90;;;;;;5019234;28;20036;-79
2021/09/29 06:03:20;;;;;;;11.13;6.70;;;15.20;99.90;;;;;;5027447;28;20041;-80
2021/09/29 06:05:47;;;;;;;8.05;6.75;;;15.20;99.90;;;;;;5023500;28;20095;-79
2021/09/29 06:08:13;;;;;;;8.25;6.50;;;15.20;99.90;;;;;;5008600;28;20026;-80
2021/09/29 06:10:39;;;;;;;7.10;5.30;;;15.20;99.90;;;;;;5004071;28;20026;-80
2021/09/29 06:13:04;;;;;;;7.15;4.95;;;15.20;99.90;;;;;;5003139;28;20034;-80
2021/09/29 06:15:33;;;;;;;5.95;5.05;;;15.20;99.90;;;;;;5001293;28;20456;-81
2021/09/29 06:18:02;;;;;;;6.57;5.00;;;15.30;99.90;;;;;;5003512;28;20077;-81
2021/09/29 06:20:31;;;;;;;6.03;5.25;;;15.30;99.90;;;;;;5021225;28;20093;-82
2021/09/29 06:22:58;;;;;;;8.27;5.78;;;15.40;99.90;;;;;;4999872;28;20547;-81
2021/09/29 06:25:24;;;;;;;5.13;4.07;;;15.40;99.90;;;;;;5012886;28;20046;-82
2021/09/29 06:27:50;;;;;;;5.38;4.88;;;15.40;99.90;;;;;;5024216;28;20053;-80
2021/09/29 06:30:17;;;;;;;6.25;4.88;;;15.40;99.90;;;;;;5005382;28;20069;-81
2021/09/29 06:32:43;;;;;;;9.18;5.00;;;15.40;99.90;;;;;;5002382;28;20029;-80
2021/09/29 06:35:10;;;;;;;6.32;4.55;;;15.40;99.90;;;;;;4986649;28;20028;-81
2021/09/29 06:37:39;;;;;;;7.78;4.88;;;15.40;99.90;;;;;;5004633;28;20121;-80
2021/09/29 06:40:14;;;;;;;5.80;3.97;;;15.40;99.90;;;;;;5022284;28;20022;-80
2021/09/29 06:42:41;;;;;;;5.60;3.58;;;15.30;99.90;;;;;;4981703;28;20097;-79
2021/09/29 06:45:08;;;;;;;8.18;4.10;;;15.30;99.90;;;;;;4981776;28;20034;-80
2021/09/29 06:47:35;;;;;;;7.43;5.03;;;15.20;99.90;;;;;;4980120;28;20041;-80
2021/09/29 06:50:01;;;;;;;8.00;4.20;;;15.20;99.90;;;;;;4981842;28;20050;-79
2021/09/29 06:52:27;;;;;;;4.70;3.78;;;15.20;99.90;;;;;;4981782;28;20510;-81
2021/09/29 06:54:53;;;;;;;3.60;2.83;;;15.20;99.90;;;;;;4982003;28;20073;-80
2021/09/29 06:57:19;;;;;;;5.25;3.45;;;15.20;99.90;;;;;;4992485;28;20029;-80
2021/09/29 06:59:44;;;;;;;3.67;2.80;;;15.20;99.90;;;;;;5021049;28;20030;-80
2021/09/29 07:02:10;;;;;;;3.40;2.80;;;15.20;99.90;;;;;;5022464;28;20085;-79
2021/09/29 07:04:36;;;;;;;3.83;2.47;;;15.20;99.90;;;;;;5019628;28;20026;-80
2021/09/29 07:07:02;;;;;;;4.70;2.65;;;15.30;99.90;;;;;;5009337;28;20053;-79
2021/09/29 07:09:27;;;;;;;5.15;2.70;;;15.30;99.90;;;;;;5000352;28;20375;-81
2021/09/29 07:11:53;;;;;;;4.50;2.65;;;15.30;99.90;;;;;;5022044;28;20026;-80
2021/09/29 07:14:20;;;;;;;5.43;3.00;;;15.30;99.90;;;;;;5004574;28;20030;-80
2021/09/29 07:16:47;;;;;;;2.45;1.90;;;15.30;99.90;;;;;;5003921;28;20018;-81
2021/09/29 07:19:13;;;;;;;3.10;2.30;;;15.30;99.90;;;;;;5006296;28;20102;-80
2021/09/29 07:21:39;;;;;;;8.25;2.88;;;15.40;99.90;;;;;;4977175;28;20026;-80
2021/09/29 07:24:05;;;;;;;2.70;1.92;;;15.40;99.90;;;;;;4972625;28;20110;-80
2021/09/29 07:26:33;;;;;;;2.53;1.88;;;15.50;99.90;;;;;;4991466;28;20092;-80
2021/09/29 07:28:59;;;;;;;2.72;1.80;;;15.60;99.90;;;;;;4996400;28;20479;-80
2021/09/29 07:31:25;;;;;;;3.05;2.05;;;15.60;99.30;;;;;;5005988;28;20034;-80
2021/09/29 07:33:51;;;;;;;3.60;1.90;;;15.70;98.70;;;;;;5006111;28;20172;-79
2021/09/29 07:36:16;;;;;;;6.35;1.80;;;15.80;98.50;;;;;;5013213;28;20022;-79
2021/09/29 07:38:42;;;;;;;2.28;1.75;;;15.90;98.20;;;;;;5018355;28;20041;-80
2021/09/29 07:41:08;;;;;;;4.00;1.60;;;16.00;96.10;;;;;;5007440;28;20045;-80
2021/09/29 07:43:34;;;;;;;2.00;1.70;;;16.00;96.30;;;;;;5006319;28;20027;-80
2021/09/29 07:46:00;;;;;;;5.60;1.83;;;16.10;96.10;;;;;;5007167;28;20026;-80
2021/09/29 07:48:26;;;;;;;4.97;1.83;;;16.10;95.50;;;;;;5006591;28;20038;-80
2021/09/29 07:50:52;;;;;;;3.60;1.90;;;16.20;94.60;;;;;;5006277;28;20076;-81
2021/09/29 07:53:21;;;;;;;2.80;1.65;;;16.30;93.80;;;;;;4986970;28;20386;-80
2021/09/29 07:55:47;;;;;;;4.03;1.50;;;16.40;91.50;;;;;;5005527;28;20057;-80
2021/09/29 07:58:13;;;;;;;1.88;1.17;;;16.40;90.60;;;;;;5004967;28;20034;-79
2021/09/29 08:00:38;;;;;;;1.73;1.05;;;16.30;90.50;;;;;;5004849;28;20136;-80
2021/09/29 08:03:04;;;;;;;6.10;0.90;;;16.30;90.60;;;;;;5005113;28;20041;-80
2021/09/29 08:05:31;;;;;;;6.38;1.98;;;16.30;88.70;;;;;;5009422;28;20072;-80
2021/09/29 08:07:56;;;;;;;4.50;1.52;;;16.40;88.90;;;;;;5025825;28;20085;-80
2021/09/29 08:10:22;;;;;;;3.75;1.25;;;16.40;86.60;;;;;;5007247;28;20103;-80
2021/09/29 08:12:48;;;;;;;3.90;1.42;;;16.50;85.30;;;;;;5006813;28;20026;-80
2021/09/29 08:15:15;;;;;;;2.10;1.30;;;16.50;84.80;;;;;;5028601;28;20029;-79
2021/09/29 08:17:43;;;;;;;2.33;1.40;;;16.70;86.10;;;;;;5038654;28;20016;-80
2021/09/29 08:20:15;;;;;;;2.08;1.38;;;16.90;84.30;;;;;;5003131;28;20027;-79
2021/09/29 08:22:43;;;;;;;4.15;0.90;;;17.00;81.90;;;;;;5005554;28;21060;-80
2021/09/29 08:35:35;;;;;;;3.03;1.30;;;17.60;77.90;;;;;;5024131;28;20076;-80
2021/09/29 08:43:53;;;;;;;2.97;1.27;;;17.60;76.30;;;;;;5026566;28;20034;-79
2021/09/29 08:46:31;;;;;;;3.45;1.73;;;17.70;74.90;;;;;;5023628;28;20036;-79
2021/09/29 08:49:09;;;;;;;2.35;1.33;;;17.90;74.40;;;;;;5024444;28;20026;-80
2021/09/29 09:16:35;;;;;;;3.97;0.98;;;18.80;64.30;;;;;;4989963;28;20038;-82
2021/09/29 09:19:08;;;;;;;1.85;0.98;;;18.60;63.90;;;;;;4975626;28;20061;-82
2021/09/29 09:21:37;;;;;;;2.13;0.82;;;18.40;64.20;;;;;;4994825;28;20023;-82
2021/09/29 09:24:21;;;;;;;2.45;1.20;;;18.30;64.00;;;;;;5013483;28;20030;-82
2021/09/29 09:27:18;;;;;;;1.02;0.60;;;18.30;64.50;;;;;;5032286;28;20093;-82
2021/09/29 09:29:48;;;;;;;1.70;0.70;;;18.40;64.90;;;;;;5026004;28;20051;-83
2021/09/29 09:32:17;;;;;;;3.67;0.75;;;18.50;64.30;;;;;;5029407;28;20027;-83
2021/09/29 09:34:43;;;;;;;2.13;0.77;;;18.60;63.60;;;;;;5011268;28;20042;-82
2021/09/29 09:37:14;;;;;;;3.42;1.40;;;18.50;64.50;;;;;;5017307;28;20038;-83
2021/09/29 09:39:41;;;;;;;4.90;1.10;;;18.50;64.60;;;;;;5007835;28;20428;-83
2021/09/29 09:42:09;;;;;;;2.63;0.70;;;18.50;64.80;;;;;;5003968;28;20602;-82
2021/09/29 09:44:37;;;;;;;2.22;0.73;;;18.50;64.20;;;;;;5004507;28;20050;-82
2021/09/29 09:47:12;;;;;;;1.50;0.63;;;18.40;64.10;;;;;;5005036;28;20018;-82
2021/09/29 09:49:44;;;;;;;2.90;1.10;;;18.50;64.90;;;;;;5004422;28;20030;-82
2021/09/29 09:52:10;;;;;;;2.28;1.13;;;18.70;64.10;;;;;;5006089;28;20479;-82
2021/09/29 09:54:41;;;;;;;4.50;0.90;;;18.80;62.80;;;;;;5005642;28;20109;-81
2021/09/29 09:57:22;;;;;;;2.05;0.88;;;18.80;63.70;;;;;;5005324;28;20053;-82
2021/09/29 09:59:49;;;;;;;4.35;1.15;;;18.80;62.90;;;;;;5005076;28;20036;-82
2021/09/29 10:02:16;;;;;;;2.08;0.85;;;18.70;61.00;;;;;;4989023;28;20110;-82
2021/09/29 10:04:43;;;;;;;2.47;0.75;;;18.60;61.50;;;;;;5017897;28;20033;-82
2021/09/29 10:07:09;;;;;;;3.25;1.02;;;18.60;60.70;;;;;;5016633;28;20050;-83
2021/09/29 10:09:51;;;;;;;1.52;0.80;;;18.60;60.80;;;;;;5020284;28;20030;-83
2021/09/29 10:12:25;;;;;;;1.55;0.65;;;18.70;59.70;;;;;;5017796;28;20029;-83
2021/09/29 10:26:09;;;;;;;3.53;0.88;;;19.10;59.20;;;;;;5024112;28;20068;-83
2021/09/29 10:28:41;;;;;;;5.32;1.00;;;19.20;58.90;;;;;;5021658;28;20384;-82
2021/09/29 10:31:37;;;;;;;2.90;1.13;;;19.40;58.60;;;;;;5022758;28;20018;-82
2021/09/29 10:34:24;;;;;;;2.25;0.80;;;19.40;58.70;;;;;;5003513;28;20048;-82
2021/09/29 11:28:49;;;;;;;2.75;1.00;;;19.30;60.10;;;;;;5020115;28;20097;-82
2021/09/29 11:31:27;;;;;;;1.85;0.90;;;19.40;61.20;;;;;;5021285;28;20022;-82
2021/09/29 11:36:41;;;;;;;3.60;1.20;;;19.60;60.50;;;;;;4999900;28;20027;-83
2021/09/29 12:09:39;;;;;;;1.60;0.73;;;21.90;55.70;;;;;;5025729;28;20068;-82
2021/09/29 12:12:16;;;;;;;1.65;0.95;;;22.30;55.20;;;;;;5021513;28;20073;-82
2021/09/29 12:14:45;;;;;;;5.00;1.30;;;22.60;54.20;;;;;;5016820;28;20089;-83
2021/09/29 12:17:12;;;;;;;3.25;1.05;;;22.60;53.80;;;;;;5003649;28;20023;-81
2021/09/29 12:19:41;;;;;;;1.55;0.82;;;22.50;54.00;;;;;;5002075;28;20031;-82
2021/09/29 12:22:20;;;;;;;1.33;0.70;;;22.20;54.00;;;;;;5024815;28;20341;-83
2021/09/29 12:24:49;;;;;;;3.85;1.58;;;21.90;54.90;;;;;;5026396;28;20036;-83
2021/09/29 12:30:35;;;;;;;1.83;1.00;;;21.20;57.00;;;;;;5002897;28;20052;-83
2021/09/29 12:35:38;;;;;;;5.93;1.13;;;21.00;57.60;;;;;;5010488;28;20572;-82
2021/09/29 12:38:05;;;;;;;1.67;1.05;;;20.90;57.20;;;;;;5011277;28;20011;-83
2021/09/29 12:40:35;;;;;;;1.73;0.75;;;20.90;57.50;;;;;;4999032;28;20038;-82
2021/09/29 12:43:02;;;;;;;3.58;1.00;;;20.80;58.10;;;;;;4996791;28;20030;-82
2021/09/29 12:45:33;;;;;;;4.40;1.00;;;20.70;57.70;;;;;;4998622;28;20034;-83
2021/09/29 12:48:04;;;;;;;4.18;1.20;;;20.70;58.50;;;;;;5015558;28;20030;-83
2021/09/29 12:55:58;;;;;;;3.10;1.35;;;20.40;59.30;;;;;;5003480;28;20537;-80
2021/09/29 12:58:24;;;;;;;2.08;0.80;;;20.30;59.80;;;;;;4986763;28;20459;-82
2021/09/29 13:00:51;;;;;;;2.70;0.80;;;20.20;60.20;;;;;;5003875;28;20038;-83
2021/09/29 13:03:17;;;;;;;2.45;0.95;;;20.10;61.00;;;;;;4986188;28;20372;-83
2021/09/29 13:05:43;;;;;;;2.92;0.70;;;20.20;61.00;;;;;;5001737;28;20038;-81
2021/09/29 13:08:09;;;;;;;1.38;0.88;;;20.20;61.00;;;;;;5000945;28;20030;-83
2021/09/29 13:10:35;;;;;;;2.25;0.88;;;20.20;61.20;;;;;;4988224;28;20558;-84
2021/09/29 13:13:01;;;;;;;2.78;1.23;;;20.40;61.40;;;;;;4985575;28;20031;-84
2021/09/29 13:15:27;;;;;;;1.08;0.93;;;20.50;60.70;;;;;;4968638;28;20496;-84
2021/09/29 13:17:55;;;;;;;1.27;0.80;;;20.40;61.00;;;;;;4975432;28;20014;-82
2021/09/29 13:20:30;;;;;;;3.10;0.90;;;20.40;61.60;;;;;;4986927;28;20026;-82
2021/09/29 13:36:37;;;;;;;2.20;0.90;;;20.00;62.90;;;;;;5020797;28;20105;-82
2021/09/29 13:39:08;;;;;;;2.53;0.85;;;19.90;62.90;;;;;;5007527;28;20030;-81
2021/09/29 13:41:35;;;;;;;1.55;0.77;;;20.00;62.60;;;;;;5007945;28;20037;-81
2021/09/29 13:44:00;;;;;;;3.05;1.02;;;20.00;62.70;;;;;;4976682;28;20027;-82
2021/09/29 13:46:26;;;;;;;1.65;1.10;;;20.20;62.10;;;;;;4995967;28;20033;-81
2021/09/29 13:48:55;;;;;;;2.75;1.00;;;20.30;61.90;;;;;;5006898;28;20155;-81
2021/09/29 13:51:20;;;;;;;4.93;1.17;;;20.40;62.00;;;;;;5021848;28;20030;-81
2021/09/29 13:53:46;;;;;;;3.10;1.10;;;20.40;61.20;;;;;;5003996;28;20036;-81
2021/09/29 13:56:16;;;;;;;1.45;1.20;;;20.40;61.20;;;;;;5004831;28;20061;-81
2021/09/29 13:59:18;;;;;;;2.58;1.23;;;20.20;62.20;;;;;;5006639;28;20033;-82
2021/09/29 14:32:20;;;;;;;1.55;0.73;;;20.00;61.70;;;;;;5022046;28;20025;-81
2021/09/29 14:34:20;;;;;;;2.28;0.90;;;20.00;61.90;;;;;;4979900;28;20399;-81
2021/09/29 14:36:46;;;;;;;1.10;0.85;;;19.90;61.90;;;;;;5018373;28;20026;-79
2021/09/29 14:39:12;;;;;;;1.20;1.10;;;19.90;61.80;;;;;;5002698;28;20022;-79
2021/09/29 14:41:38;;;;;;;2.05;0.93;;;19.70;62.40;;;;;;5002005;28;20487;-80
2021/09/29 14:44:04;;;;;;;3.20;1.38;;;19.80;62.60;;;;;;4984401;28;20508;-80
2021/09/29 14:46:30;;;;;;;1.65;1.00;;;20.20;61.60;;;;;;4989503;28;20048;-80
2021/09/29 14:48:56;;;;;;;3.72;1.30;;;20.50;60.20;;;;;;4992884;28;20078;-80
2021/09/29 14:51:22;;;;;;;1.67;0.80;;;20.50;59.70;;;;;;4988154;28;20026;-81
2021/09/29 14:53:53;;;;;;;2.45;0.68;;;20.50;60.30;;;;;;5012265;28;20125;-81
2021/09/29 14:56:19;;;;;;;2.63;0.88;;;20.40;60.80;;;;;;5020772;28;20483;-81
2021/09/29 14:58:46;;;;;;;1.50;0.75;;;20.20;61.20;;;;;;5007060;28;20034;-80
2021/09/29 15:01:12;;;;;;;2.17;0.93;;;20.20;61.90;;;;;;5005109;28;20046;-80
2021/09/29 15:03:40;;;;;;;1.48;0.85;;;20.30;61.90;;;;;;4996708;28;20053;-80
2021/09/29 15:06:06;;;;;;;1.25;0.80;;;20.30;61.60;;;;;;5017822;28;20034;-80
2021/09/29 15:08:33;;;;;;;0.68;0.68;;;20.30;61.40;;;;;;5017671;28;20025;-80
2021/09/29 15:10:59;;;;;;;1.98;0.77;;;20.20;61.40;;;;;;5024893;28;20029;-80
2021/09/29 15:13:30;;;;;;;2.00;0.85;;;20.10;60.70;;;;;;5020045;28;20097;-80
2021/09/29 15:18:37;;;;;;;0.85;0.68;;;20.00;62.20;;;;;;5014740;28;20303;-80
2021/09/29 15:47:19;;;;;;;1.23;0.93;;;18.90;62.70;;;;;;5015186;28;20025;-80
2021/09/29 15:55:11;;;;;;;0.80;0.80;;;18.60;63.50;;;;;;5019892;28;20049;-80
2021/09/29 16:05:42;;;;;;;2.28;0.70;;;18.30;66.00;;;;;;5012398;28;20040;-79
2021/09/29 16:13:43;;;;;;;0.80;0.70;;;;;;;;;;5015214;28;20023;-80
2021/09/29 16:21:47;;;;;;;0.50;0.50;;;17.70;68.40;;;;;;4987480;28;20090;-79
2021/09/29 16:35:19;;;;;;;0.85;0.85;;;17.30;70.40;;;;;;5019865;28;20065;-81
2021/09/29 16:37:46;;;;;;;1.45;0.80;;;17.20;70.90;;;;;;4992705;28;20026;-80
2021/09/29 16:40:13;;;;;;;0.75;0.75;;;17.10;71.50;;;;;;5023399;28;20022;-83
2021/09/29 16:42:39;;;;;;;2.03;0.73;;;17.10;72.40;;;;;;5024595;28;20033;-78
2021/09/29 16:45:09;;;;;;;0.95;0.90;;;16.90;72.70;;;;;;5023283;28;20030;-80
2021/09/29 16:47:36;;;;;;;0.95;0.80;;;16.80;72.90;;;;;;5017507;28;20042;-80
2021/09/29 16:50:02;;;;;;;0.82;0.82;;;16.80;73.60;;;;;;5009651;28;20125;-79
2021/09/29 16:52:50;;;;;;;0.98;0.82;;;16.70;74.20;;;;;;4989808;28;20121;-80
2021/09/29 16:55:26;;;;;;;0.80;0.80;;;16.60;74.80;;;;;;5007196;28;20066;-79
2021/09/29 16:58:03;;;;;;;2.35;1.42;;;16.50;75.20;;;;;;5006906;28;20014;-79
2021/09/29 17:00:42;;;;;;;1.13;0.88;;;16.40;75.70;;;;;;5022861;28;20022;-76